sensor_id;sensor_type;location;lat;lon;timestamp;P1;durP1;ratioP1;P2;durP2;ratioP2
27670;SDS011;15077;49.704;9.908;2023-04-28T00:00:27;3.28;;;2.30;;
27670;SDS011;15077;49.704;9.908;2023-04-28T00:02:53;3.35;;;2.58;;
27670;SDS011;15077;49.704;9.908;2023-04-28T00:05:19;3.35;;;2.30;;
27670;SDS011;15077;49.704;9.908;2023-04-28T00:07:46;3.40;;;2.13;;
27670;SDS011;15077;49.704;9.908;2023-04-28T00:10:13;2.40;;;2.05;;
27670;SDS011;15077;49.704;9.908;2023-04-28T00:12:39;3.80;;;2.55;;
27670;SDS011;15077;49.704;9.908;2023-04-28T00:15:05;2.92;;;2.63;;
27670;SDS011;15077;49.704;9.908;2023-04-28T00:17:31;2.95;;;2.03;;
27670;SDS011;15077;49.704;9.908;2023-04-28T00:19:58;3.58;;;2.47;;
27670;SDS011;15077;49.704;9.908;2023-04-28T00:22:24;2.88;;;2.58;;
27670;SDS011;15077;49.704;9.908;2023-04-28T00:24:50;3.83;;;2.53;;
27670;SDS011;15077;49.704;9.908;2023-04-28T00:27:15;2.72;;;2.30;;
27670;SDS011;15077;49.704;9.908;2023-04-28T00:29:42;3.50;;;2.50;;
27670;SDS011;15077;49.704;9.908;2023-04-28T00:32:08;4.53;;;2.58;;
27670;SDS011;15077;49.704;9.908;2023-04-28T00:34:34;3.47;;;2.88;;
27670;SDS011;15077;49.704;9.908;2023-04-28T00:37:05;3.63;;;2.65;;
27670;SDS011;15077;49.704;9.908;2023-04-28T00:39:33;2.63;;;2.20;;
27670;SDS011;15077;49.704;9.908;2023-04-28T00:41:58;2.42;;;2.22;;
27670;SDS011;15077;49.704;9.908;2023-04-28T00:44:24;5.63;;;2.88;;
27670;SDS011;15077;49.704;9.908;2023-04-28T00:46:50;3.03;;;2.40;;
27670;SDS011;15077;49.704;9.908;2023-04-28T00:49:15;4.20;;;2.30;;
27670;SDS011;15077;49.704;9.908;2023-04-28T00:51:41;3.63;;;2.83;;
27670;SDS011;15077;49.704;9.908;2023-04-28T00:54:07;3.63;;;2.70;;
27670;SDS011;15077;49.704;9.908;2023-04-28T00:56:34;3.60;;;2.50;;
27670;SDS011;15077;49.704;9.908;2023-04-28T00:59:00;3.03;;;2.53;;
27670;SDS011;15077;49.704;9.908;2023-04-28T01:01:26;6.05;;;3.05;;
27670;SDS011;15077;49.704;9.908;2023-04-28T01:03:52;3.50;;;2.60;;
27670;SDS011;15077;49.704;9.908;2023-04-28T01:06:18;3.42;;;2.78;;
27670;SDS011;15077;49.704;9.908;2023-04-28T01:08:46;3.67;;;2.55;;
27670;SDS011;15077;49.704;9.908;2023-04-28T01:11:15;3.47;;;2.53;;
27670;SDS011;15077;49.704;9.908;2023-04-28T01:13:41;4.82;;;2.75;;
27670;SDS011;15077;49.704;9.908;2023-04-28T01:16:07;3.38;;;2.55;;
27670;SDS011;15077;49.704;9.908;2023-04-28T01:18:33;2.78;;;2.28;;
27670;SDS011;15077;49.704;9.908;2023-04-28T01:20:59;3.53;;;2.85;;
27670;SDS011;15077;49.704;9.908;2023-04-28T01:23:27;2.70;;;2.47;;
27670;SDS011;15077;49.704;9.908;2023-04-28T01:25:54;3.80;;;2.50;;
27670;SDS011;15077;49.704;9.908;2023-04-28T01:28:20;2.92;;;2.53;;
27670;SDS011;15077;49.704;9.908;2023-04-28T01:30:46;4.13;;;2.83;;
27670;SDS011;15077;49.704;9.908;2023-04-28T01:33:12;5.13;;;2.83;;
27670;SDS011;15077;49.704;9.908;2023-04-28T01:35:38;3.25;;;2.90;;
27670;SDS011;15077;49.704;9.908;2023-04-28T01:38:04;2.75;;;1.92;;
27670;SDS011;15077;49.704;9.908;2023-04-28T01:40:30;3.00;;;2.30;;
27670;SDS011;15077;49.704;9.908;2023-04-28T01:42:59;3.40;;;2.38;;
27670;SDS011;15077;49.704;9.908;2023-04-28T01:45:24;3.05;;;2.40;;
27670;SDS011;15077;49.704;9.908;2023-04-28T01:47:50;5.85;;;2.72;;
27670;SDS011;15077;49.704;9.908;2023-04-28T01:50:16;3.70;;;2.90;;
27670;SDS011;15077;49.704;9.908;2023-04-28T01:52:42;3.78;;;3.08;;
27670;SDS011;15077;49.704;9.908;2023-04-28T01:55:08;4.13;;;3.00;;
27670;SDS011;15077;49.704;9.908;2023-04-28T01:57:34;3.40;;;2.65;;
27670;SDS011;15077;49.704;9.908;2023-04-28T02:00:00;3.25;;;2.80;;
27670;SDS011;15077;49.704;9.908;2023-04-28T02:02:27;3.47;;;2.50;;
27670;SDS011;15077;49.704;9.908;2023-04-28T02:04:53;3.88;;;2.58;;
27670;SDS011;15077;49.704;9.908;2023-04-28T02:07:19;4.88;;;3.08;;
27670;SDS011;15077;49.704;9.908;2023-04-28T02:09:45;2.42;;;2.13;;
27670;SDS011;15077;49.704;9.908;2023-04-28T02:12:11;2.80;;;2.20;;
27670;SDS011;15077;49.704;9.908;2023-04-28T02:14:36;4.22;;;2.33;;
27670;SDS011;15077;49.704;9.908;2023-04-28T02:17:02;3.08;;;2.15;;
27670;SDS011;15077;49.704;9.908;2023-04-28T02:19:29;4.95;;;2.47;;
27670;SDS011;15077;49.704;9.908;2023-04-28T02:21:55;3.92;;;2.55;;
27670;SDS011;15077;49.704;9.908;2023-04-28T02:24:21;5.00;;;2.53;;
27670;SDS011;15077;49.704;9.908;2023-04-28T02:26:47;4.20;;;2.42;;
27670;SDS011;15077;49.704;9.908;2023-04-28T02:29:13;4.60;;;2.20;;
27670;SDS011;15077;49.704;9.908;2023-04-28T02:31:39;4.00;;;2.55;;
27670;SDS011;15077;49.704;9.908;2023-04-28T02:34:05;4.10;;;2.65;;
27670;SDS011;15077;49.704;9.908;2023-04-28T02:36:31;3.17;;;2.58;;
27670;SDS011;15077;49.704;9.908;2023-04-28T02:38:57;4.80;;;2.67;;
27670;SDS011;15077;49.704;9.908;2023-04-28T02:41:23;3.22;;;2.75;;
27670;SDS011;15077;49.704;9.908;2023-04-28T02:43:51;4.00;;;2.85;;
27670;SDS011;15077;49.704;9.908;2023-04-28T02:46:17;3.25;;;2.40;;
27670;SDS011;15077;49.704;9.908;2023-04-28T02:48:43;3.63;;;2.63;;
27670;SDS011;15077;49.704;9.908;2023-04-28T02:51:09;3.38;;;2.78;;
27670;SDS011;15077;49.704;9.908;2023-04-28T02:53:37;2.75;;;2.38;;
27670;SDS011;15077;49.704;9.908;2023-04-28T02:56:03;3.28;;;2.65;;
27670;SDS011;15077;49.704;9.908;2023-04-28T02:58:29;4.30;;;2.35;;
27670;SDS011;15077;49.704;9.908;2023-04-28T03:00:55;3.25;;;2.53;;
27670;SDS011;15077;49.704;9.908;2023-04-28T03:03:21;3.72;;;2.78;;
27670;SDS011;15077;49.704;9.908;2023-04-28T03:05:46;3.47;;;2.17;;
27670;SDS011;15077;49.704;9.908;2023-04-28T03:08:12;3.33;;;2.58;;
27670;SDS011;15077;49.704;9.908;2023-04-28T03:10:38;3.53;;;2.72;;
27670;SDS011;15077;49.704;9.908;2023-04-28T03:13:04;3.78;;;2.75;;
27670;SDS011;15077;49.704;9.908;2023-04-28T03:15:31;5.03;;;2.63;;
27670;SDS011;15077;49.704;9.908;2023-04-28T03:17:57;3.65;;;2.15;;
27670;SDS011;15077;49.704;9.908;2023-04-28T03:20:23;3.03;;;2.60;;
27670;SDS011;15077;49.704;9.908;2023-04-28T03:22:49;4.03;;;2.90;;
27670;SDS011;15077;49.704;9.908;2023-04-28T03:25:15;3.80;;;2.88;;
27670;SDS011;15077;49.704;9.908;2023-04-28T03:27:41;3.88;;;2.78;;
27670;SDS011;15077;49.704;9.908;2023-04-28T03:30:07;3.58;;;2.25;;
27670;SDS011;15077;49.704;9.908;2023-04-28T03:32:36;3.63;;;2.60;;
27670;SDS011;15077;49.704;9.908;2023-04-28T03:35:02;4.57;;;2.85;;
27670;SDS011;15077;49.704;9.908;2023-04-28T03:37:29;4.47;;;3.17;;
27670;SDS011;15077;49.704;9.908;2023-04-28T03:39:55;4.07;;;2.45;;
27670;SDS011;15077;49.704;9.908;2023-04-28T03:42:20;2.67;;;2.38;;
27670;SDS011;15077;49.704;9.908;2023-04-28T03:44:46;2.97;;;2.55;;
27670;SDS011;15077;49.704;9.908;2023-04-28T03:47:12;4.53;;;3.47;;
27670;SDS011;15077;49.704;9.908;2023-04-28T03:49:38;4.47;;;2.83;;
27670;SDS011;15077;49.704;9.908;2023-04-28T03:52:04;4.30;;;3.00;;
27670;SDS011;15077;49.704;9.908;2023-04-28T03:54:30;4.72;;;3.08;;
27670;SDS011;15077;49.704;9.908;2023-04-28T03:56:56;3.80;;;2.88;;
27670;SDS011;15077;49.704;9.908;2023-04-28T03:59:22;4.63;;;2.90;;
27670;SDS011;15077;49.704;9.908;2023-04-28T04:01:48;2.88;;;2.42;;
27670;SDS011;15077;49.704;9.908;2023-04-28T04:04:14;3.63;;;2.53;;
27670;SDS011;15077;49.704;9.908;2023-04-28T04:06:40;2.92;;;2.50;;
27670;SDS011;15077;49.704;9.908;2023-04-28T04:09:05;2.80;;;2.25;;
27670;SDS011;15077;49.704;9.908;2023-04-28T04:11:32;3.58;;;2.67;;
27670;SDS011;15077;49.704;9.908;2023-04-28T04:13:59;3.58;;;2.83;;
27670;SDS011;15077;49.704;9.908;2023-04-28T04:16:26;2.72;;;2.33;;
27670;SDS011;15077;49.704;9.908;2023-04-28T04:18:54;3.80;;;2.80;;
27670;SDS011;15077;49.704;9.908;2023-04-28T04:21:20;3.47;;;2.72;;
27670;SDS011;15077;49.704;9.908;2023-04-28T04:23:46;3.75;;;2.72;;
27670;SDS011;15077;49.704;9.908;2023-04-28T04:26:12;3.13;;;2.80;;
27670;SDS011;15077;49.704;9.908;2023-04-28T04:28:38;3.08;;;2.45;;
27670;SDS011;15077;49.704;9.908;2023-04-28T04:31:03;4.07;;;2.83;;
27670;SDS011;15077;49.704;9.908;2023-04-28T04:33:29;3.40;;;2.88;;
27670;SDS011;15077;49.704;9.908;2023-04-28T04:35:55;3.88;;;2.97;;
27670;SDS011;15077;49.704;9.908;2023-04-28T04:38:20;4.00;;;2.60;;
27670;SDS011;15077;49.704;9.908;2023-04-28T04:40:46;3.45;;;2.50;;
27670;SDS011;15077;49.704;9.908;2023-04-28T04:43:12;3.28;;;2.78;;
27670;SDS011;15077;49.704;9.908;2023-04-28T04:45:37;2.78;;;2.30;;
27670;SDS011;15077;49.704;9.908;2023-04-28T04:48:03;4.13;;;2.80;;
27670;SDS011;15077;49.704;9.908;2023-04-28T04:50:29;4.32;;;2.50;;
27670;SDS011;15077;49.704;9.908;2023-04-28T04:52:55;3.80;;;2.97;;
27670;SDS011;15077;49.704;9.908;2023-04-28T04:55:21;4.63;;;3.33;;
27670;SDS011;15077;49.704;9.908;2023-04-28T04:57:47;3.47;;;2.33;;
27670;SDS011;15077;49.704;9.908;2023-04-28T05:00:12;2.95;;;2.17;;
27670;SDS011;15077;49.704;9.908;2023-04-28T05:02:40;3.17;;;2.55;;
27670;SDS011;15077;49.704;9.908;2023-04-28T05:05:06;3.13;;;2.70;;
27670;SDS011;15077;49.704;9.908;2023-04-28T05:07:33;3.17;;;2.58;;
27670;SDS011;15077;49.704;9.908;2023-04-28T05:09:59;3.47;;;2.47;;
27670;SDS011;15077;49.704;9.908;2023-04-28T05:12:25;3.15;;;2.50;;
27670;SDS011;15077;49.704;9.908;2023-04-28T05:14:51;3.22;;;2.70;;
27670;SDS011;15077;49.704;9.908;2023-04-28T05:17:17;4.03;;;3.08;;
27670;SDS011;15077;49.704;9.908;2023-04-28T05:19:42;3.17;;;2.10;;
27670;SDS011;15077;49.704;9.908;2023-04-28T05:22:08;4.03;;;3.08;;
27670;SDS011;15077;49.704;9.908;2023-04-28T05:24:35;4.25;;;3.35;;
27670;SDS011;15077;49.704;9.908;2023-04-28T05:27:01;5.38;;;3.20;;
27670;SDS011;15077;49.704;9.908;2023-04-28T05:29:27;4.68;;;3.13;;
27670;SDS011;15077;49.704;9.908;2023-04-28T05:31:52;5.13;;;3.28;;
27670;SDS011;15077;49.704;9.908;2023-04-28T05:34:18;5.63;;;3.38;;
27670;SDS011;15077;49.704;9.908;2023-04-28T05:36:44;3.95;;;3.00;;
27670;SDS011;15077;49.704;9.908;2023-04-28T05:39:10;6.25;;;4.07;;
27670;SDS011;15077;49.704;9.908;2023-04-28T05:41:35;4.97;;;3.85;;
27670;SDS011;15077;49.704;9.908;2023-04-28T05:44:01;6.70;;;4.20;;
27670;SDS011;15077;49.704;9.908;2023-04-28T05:46:27;4.68;;;3.92;;
27670;SDS011;15077;49.704;9.908;2023-04-28T05:48:53;3.90;;;3.47;;
27670;SDS011;15077;49.704;9.908;2023-04-28T05:51:19;5.10;;;3.78;;
27670;SDS011;15077;49.704;9.908;2023-04-28T05:53:46;5.00;;;3.20;;
27670;SDS011;15077;49.704;9.908;2023-04-28T05:56:13;5.30;;;3.70;;
27670;SDS011;15077;49.704;9.908;2023-04-28T05:58:40;4.38;;;3.45;;
27670;SDS011;15077;49.704;9.908;2023-04-28T06:01:08;4.00;;;3.28;;
27670;SDS011;15077;49.704;9.908;2023-04-28T06:03:34;4.50;;;3.47;;
27670;SDS011;15077;49.704;9.908;2023-04-28T06:05:59;3.55;;;3.25;;
27670;SDS011;15077;49.704;9.908;2023-04-28T06:08:25;4.68;;;3.63;;
27670;SDS011;15077;49.704;9.908;2023-04-28T06:13:27;5.53;;;4.53;;
27670;SDS011;15077;49.704;9.908;2023-04-28T06:15:53;5.07;;;3.92;;
27670;SDS011;15077;49.704;9.908;2023-04-28T06:18:19;8.95;;;6.78;;
27670;SDS011;15077;49.704;9.908;2023-04-28T06:20:45;8.32;;;5.13;;
27670;SDS011;15077;49.704;9.908;2023-04-28T06:23:11;4.43;;;4.00;;
27670;SDS011;15077;49.704;9.908;2023-04-28T06:25:37;5.13;;;3.92;;
27670;SDS011;15077;49.704;9.908;2023-04-28T06:28:02;3.88;;;3.22;;
27670;SDS011;15077;49.704;9.908;2023-04-28T06:30:28;3.92;;;3.17;;
27670;SDS011;15077;49.704;9.908;2023-04-28T06:32:54;4.55;;;3.20;;
27670;SDS011;15077;49.704;9.908;2023-04-28T06:35:21;4.40;;;2.83;;
27670;SDS011;15077;49.704;9.908;2023-04-28T06:37:47;6.50;;;4.50;;
27670;SDS011;15077;49.704;9.908;2023-04-28T06:40:13;5.72;;;4.57;;
27670;SDS011;15077;49.704;9.908;2023-04-28T06:42:39;5.57;;;4.30;;
27670;SDS011;15077;49.704;9.908;2023-04-28T06:45:05;4.32;;;3.28;;
27670;SDS011;15077;49.704;9.908;2023-04-28T06:47:32;8.93;;;4.50;;
27670;SDS011;15077;49.704;9.908;2023-04-28T06:49:58;6.43;;;3.85;;
27670;SDS011;15077;49.704;9.908;2023-04-28T06:52:25;4.72;;;3.60;;
27670;SDS011;15077;49.704;9.908;2023-04-28T06:54:53;5.10;;;3.90;;
27670;SDS011;15077;49.704;9.908;2023-04-28T06:57:19;4.15;;;2.92;;
27670;SDS011;15077;49.704;9.908;2023-04-28T06:59:45;5.32;;;3.38;;
27670;SDS011;15077;49.704;9.908;2023-04-28T07:02:11;7.22;;;4.50;;
27670;SDS011;15077;49.704;9.908;2023-04-28T07:04:37;7.25;;;6.40;;
27670;SDS011;15077;49.704;9.908;2023-04-28T07:07:02;5.93;;;4.97;;
27670;SDS011;15077;49.704;9.908;2023-04-28T07:09:32;6.45;;;4.57;;
27670;SDS011;15077;49.704;9.908;2023-04-28T07:12:01;6.10;;;5.00;;
27670;SDS011;15077;49.704;9.908;2023-04-28T07:14:28;7.90;;;5.43;;
27670;SDS011;15077;49.704;9.908;2023-04-28T07:16:54;5.32;;;4.10;;
27670;SDS011;15077;49.704;9.908;2023-04-28T07:19:20;5.15;;;4.07;;
27670;SDS011;15077;49.704;9.908;2023-04-28T07:21:46;5.22;;;3.60;;
27670;SDS011;15077;49.704;9.908;2023-04-28T07:24:12;7.10;;;3.58;;
27670;SDS011;15077;49.704;9.908;2023-04-28T07:26:38;4.30;;;3.47;;
27670;SDS011;15077;49.704;9.908;2023-04-28T07:29:03;5.10;;;3.65;;
27670;SDS011;15077;49.704;9.908;2023-04-28T07:31:29;7.20;;;5.10;;
27670;SDS011;15077;49.704;9.908;2023-04-28T07:33:55;5.68;;;4.10;;
27670;SDS011;15077;49.704;9.908;2023-04-28T07:36:21;6.50;;;4.97;;
27670;SDS011;15077;49.704;9.908;2023-04-28T07:38:47;4.43;;;3.58;;
27670;SDS011;15077;49.704;9.908;2023-04-28T07:41:13;4.30;;;3.42;;
27670;SDS011;15077;49.704;9.908;2023-04-28T07:43:41;4.45;;;3.78;;
27670;SDS011;15077;49.704;9.908;2023-04-28T07:46:07;6.43;;;3.67;;
27670;SDS011;15077;49.704;9.908;2023-04-28T07:48:33;5.70;;;3.75;;
27670;SDS011;15077;49.704;9.908;2023-04-28T07:50:59;4.88;;;3.42;;
27670;SDS011;15077;49.704;9.908;2023-04-28T07:53:25;4.50;;;3.05;;
27670;SDS011;15077;49.704;9.908;2023-04-28T07:55:54;5.03;;;3.60;;
27670;SDS011;15077;49.704;9.908;2023-04-28T07:58:20;4.03;;;3.38;;
27670;SDS011;15077;49.704;9.908;2023-04-28T08:00:49;4.05;;;3.30;;
27670;SDS011;15077;49.704;9.908;2023-04-28T08:03:15;5.70;;;4.20;;
27670;SDS011;15077;49.704;9.908;2023-04-28T08:05:48;4.15;;;3.50;;
27670;SDS011;15077;49.704;9.908;2023-04-28T08:08:14;4.28;;;3.60;;
27670;SDS011;15077;49.704;9.908;2023-04-28T08:10:40;5.93;;;4.32;;
27670;SDS011;15077;49.704;9.908;2023-04-28T08:13:09;3.80;;;3.00;;
27670;SDS011;15077;49.704;9.908;2023-04-28T08:15:34;3.17;;;2.88;;
27670;SDS011;15077;49.704;9.908;2023-04-28T08:18:00;5.88;;;4.38;;
27670;SDS011;15077;49.704;9.908;2023-04-28T08:20:26;6.28;;;4.13;;
27670;SDS011;15077;49.704;9.908;2023-04-28T08:22:55;6.10;;;3.70;;
27670;SDS011;15077;49.704;9.908;2023-04-28T08:25:22;4.93;;;3.63;;
27670;SDS011;15077;49.704;9.908;2023-04-28T08:27:48;4.97;;;3.65;;
27670;SDS011;15077;49.704;9.908;2023-04-28T08:30:15;6.10;;;5.07;;
27670;SDS011;15077;49.704;9.908;2023-04-28T08:32:41;10.07;;;7.07;;
27670;SDS011;15077;49.704;9.908;2023-04-28T08:35:07;8.93;;;5.93;;
27670;SDS011;15077;49.704;9.908;2023-04-28T08:37:33;6.20;;;5.03;;
27670;SDS011;15077;49.704;9.908;2023-04-28T08:40:00;5.97;;;4.78;;
27670;SDS011;15077;49.704;9.908;2023-04-28T08:42:29;7.72;;;5.75;;
27670;SDS011;15077;49.704;9.908;2023-04-28T08:44:57;6.63;;;3.65;;
27670;SDS011;15077;49.704;9.908;2023-04-28T08:47:25;4.88;;;3.40;;
27670;SDS011;15077;49.704;9.908;2023-04-28T08:50:10;4.93;;;3.83;;
27670;SDS011;15077;49.704;9.908;2023-04-28T08:52:38;6.35;;;4.32;;
27670;SDS011;15077;49.704;9.908;2023-04-28T08:55:09;5.13;;;4.32;;
27670;SDS011;15077;49.704;9.908;2023-04-28T08:57:37;6.72;;;4.40;;
27670;SDS011;15077;49.704;9.908;2023-04-28T09:00:16;5.82;;;4.90;;
27670;SDS011;15077;49.704;9.908;2023-04-28T09:02:42;5.38;;;4.47;;
27670;SDS011;15077;49.704;9.908;2023-04-28T09:05:08;7.45;;;5.40;;
27670;SDS011;15077;49.704;9.908;2023-04-28T09:07:35;6.68;;;5.40;;
27670;SDS011;15077;49.704;9.908;2023-04-28T09:10:14;7.13;;;5.72;;
27670;SDS011;15077;49.704;9.908;2023-04-28T09:12:45;6.63;;;5.38;;
27670;SDS011;15077;49.704;9.908;2023-04-28T09:15:29;6.38;;;5.20;;
27670;SDS011;15077;49.704;9.908;2023-04-28T09:18:02;5.88;;;4.53;;
27670;SDS011;15077;49.704;9.908;2023-04-28T09:20:31;5.38;;;4.13;;
27670;SDS011;15077;49.704;9.908;2023-04-28T09:23:12;6.63;;;5.50;;
27670;SDS011;15077;49.704;9.908;2023-04-28T09:26:05;6.53;;;5.07;;
27670;SDS011;15077;49.704;9.908;2023-04-28T09:28:32;6.45;;;4.80;;
27670;SDS011;15077;49.704;9.908;2023-04-28T09:31:00;6.28;;;4.50;;
27670;SDS011;15077;49.704;9.908;2023-04-28T09:33:26;6.70;;;4.35;;
27670;SDS011;15077;49.704;9.908;2023-04-28T09:35:52;5.68;;;4.43;;
27670;SDS011;15077;49.704;9.908;2023-04-28T09:38:19;4.70;;;3.80;;
27670;SDS011;15077;49.704;9.908;2023-04-28T09:40:59;5.07;;;3.50;;
27670;SDS011;15077;49.704;9.908;2023-04-28T09:43:30;5.05;;;3.92;;
27670;SDS011;15077;49.704;9.908;2023-04-28T09:46:02;6.72;;;5.35;;
27670;SDS011;15077;49.704;9.908;2023-04-28T09:48:36;8.05;;;6.97;;
27670;SDS011;15077;49.704;9.908;2023-04-28T09:51:03;8.75;;;7.38;;
27670;SDS011;15077;49.704;9.908;2023-04-28T09:53:31;7.00;;;5.82;;
27670;SDS011;15077;49.704;9.908;2023-04-28T09:55:59;5.32;;;4.82;;
27670;SDS011;15077;49.704;9.908;2023-04-28T09:58:27;6.00;;;4.25;;
27670;SDS011;15077;49.704;9.908;2023-04-28T10:00:55;4.90;;;4.40;;
27670;SDS011;15077;49.704;9.908;2023-04-28T10:03:29;5.03;;;4.05;;
27670;SDS011;15077;49.704;9.908;2023-04-28T10:05:56;4.72;;;4.18;;
27670;SDS011;15077;49.704;9.908;2023-04-28T10:08:23;5.45;;;3.88;;
27670;SDS011;15077;49.704;9.908;2023-04-28T10:10:51;6.82;;;4.38;;
27670;SDS011;15077;49.704;9.908;2023-04-28T10:13:18;5.20;;;4.22;;
27670;SDS011;15077;49.704;9.908;2023-04-28T10:15:49;5.75;;;4.85;;
27670;SDS011;15077;49.704;9.908;2023-04-28T10:18:15;5.50;;;4.43;;
27670;SDS011;15077;49.704;9.908;2023-04-28T10:20:46;6.03;;;4.68;;
27670;SDS011;15077;49.704;9.908;2023-04-28T10:23:27;5.18;;;4.03;;
27670;SDS011;15077;49.704;9.908;2023-04-28T10:26:26;7.88;;;5.25;;
27670;SDS011;15077;49.704;9.908;2023-04-28T10:29:27;5.55;;;4.35;;
27670;SDS011;15077;49.704;9.908;2023-04-28T10:34:52;8.98;;;6.72;;
27670;SDS011;15077;49.704;9.908;2023-04-28T10:38:15;11.23;;;8.52;;
27670;SDS011;15077;49.704;9.908;2023-04-28T10:40:46;10.05;;;7.63;;
27670;SDS011;15077;49.704;9.908;2023-04-28T10:48:21;9.67;;;7.30;;
27670;SDS011;15077;49.704;9.908;2023-04-28T10:56:07;6.10;;;4.93;;
27670;SDS011;15077;49.704;9.908;2023-04-28T10:58:37;7.75;;;6.53;;
27670;SDS011;15077;49.704;9.908;2023-04-28T11:12:12;7.10;;;4.03;;
27670;SDS011;15077;49.704;9.908;2023-04-28T11:14:35;7.43;;;4.38;;
27670;SDS011;15077;49.704;9.908;2023-04-28T11:17:06;9.05;;;7.75;;
27670;SDS011;15077;49.704;9.908;2023-04-28T11:19:38;8.00;;;6.05;;
27670;SDS011;15077;49.704;9.908;2023-04-28T11:22:15;5.53;;;4.50;;
27670;SDS011;15077;49.704;9.908;2023-04-28T11:24:55;5.80;;;4.68;;
27670;SDS011;15077;49.704;9.908;2023-04-28T11:27:27;6.88;;;5.35;;
27670;SDS011;15077;49.704;9.908;2023-04-28T11:29:57;9.77;;;6.90;;
27670;SDS011;15077;49.704;9.908;2023-04-28T11:32:30;7.97;;;5.90;;
27670;SDS011;15077;49.704;9.908;2023-04-28T11:34:58;8.95;;;5.93;;
27670;SDS011;15077;49.704;9.908;2023-04-28T11:37:24;10.73;;;9.00;;
27670;SDS011;15077;49.704;9.908;2023-04-28T11:39:51;8.73;;;5.68;;
27670;SDS011;15077;49.704;9.908;2023-04-28T11:42:17;7.63;;;6.30;;
27670;SDS011;15077;49.704;9.908;2023-04-28T11:44:50;7.10;;;5.45;;
27670;SDS011;15077;49.704;9.908;2023-04-28T11:47:30;9.95;;;6.55;;
27670;SDS011;15077;49.704;9.908;2023-04-28T11:49:58;7.15;;;5.68;;
27670;SDS011;15077;49.704;9.908;2023-04-28T11:52:25;5.60;;;5.05;;
27670;SDS011;15077;49.704;9.908;2023-04-28T11:54:55;7.22;;;5.85;;
27670;SDS011;15077;49.704;9.908;2023-04-28T11:59:50;6.47;;;4.80;;
27670;SDS011;15077;49.704;9.908;2023-04-28T12:02:23;4.45;;;3.95;;
27670;SDS011;15077;49.704;9.908;2023-04-28T12:04:54;5.80;;;4.78;;
27670;SDS011;15077;49.704;9.908;2023-04-28T12:07:19;3.92;;;3.30;;
27670;SDS011;15077;49.704;9.908;2023-04-28T12:09:47;3.72;;;3.03;;
27670;SDS011;15077;49.704;9.908;2023-04-28T12:12:36;3.88;;;3.47;;
27670;SDS011;15077;49.704;9.908;2023-04-28T12:15:02;6.82;;;4.30;;
27670;SDS011;15077;49.704;9.908;2023-04-28T12:17:37;9.40;;;4.13;;
27670;SDS011;15077;49.704;9.908;2023-04-28T12:20:12;4.72;;;3.85;;
27670;SDS011;15077;49.704;9.908;2023-04-28T12:23:01;5.38;;;4.75;;
27670;SDS011;15077;49.704;9.908;2023-04-28T12:25:27;5.53;;;4.25;;
27670;SDS011;15077;49.704;9.908;2023-04-28T12:28:00;4.03;;;3.35;;
27670;SDS011;15077;49.704;9.908;2023-04-28T12:30:35;6.25;;;4.82;;
27670;SDS011;15077;49.704;9.908;2023-04-28T12:33:23;5.25;;;4.25;;
27670;SDS011;15077;49.704;9.908;2023-04-28T12:35:51;5.88;;;5.15;;
27670;SDS011;15077;49.704;9.908;2023-04-28T12:38:21;5.10;;;4.20;;
27670;SDS011;15077;49.704;9.908;2023-04-28T12:40:51;5.97;;;4.97;;
27670;SDS011;15077;49.704;9.908;2023-04-28T12:43:17;6.32;;;5.38;;
27670;SDS011;15077;49.704;9.908;2023-04-28T12:45:43;4.93;;;3.85;;
27670;SDS011;15077;49.704;9.908;2023-04-28T12:48:09;6.90;;;5.32;;
27670;SDS011;15077;49.704;9.908;2023-04-28T12:50:38;5.15;;;4.55;;
27670;SDS011;15077;49.704;9.908;2023-04-28T12:53:03;5.25;;;4.55;;
27670;SDS011;15077;49.704;9.908;2023-04-28T12:55:29;5.82;;;4.90;;
27670;SDS011;15077;49.704;9.908;2023-04-28T12:57:55;6.15;;;5.07;;
27670;SDS011;15077;49.704;9.908;2023-04-28T13:00:21;5.85;;;5.25;;
27670;SDS011;15077;49.704;9.908;2023-04-28T13:02:49;4.93;;;4.30;;
27670;SDS011;15077;49.704;9.908;2023-04-28T13:05:15;5.40;;;4.20;;
27670;SDS011;15077;49.704;9.908;2023-04-28T13:07:41;5.32;;;4.38;;
27670;SDS011;15077;49.704;9.908;2023-04-28T13:10:07;5.80;;;4.70;;
27670;SDS011;15077;49.704;9.908;2023-04-28T13:12:33;6.15;;;4.88;;
27670;SDS011;15077;49.704;9.908;2023-04-28T13:15:02;4.20;;;3.70;;
27670;SDS011;15077;49.704;9.908;2023-04-28T13:17:29;3.88;;;3.47;;
27670;SDS011;15077;49.704;9.908;2023-04-28T13:19:58;3.80;;;3.20;;
27670;SDS011;15077;49.704;9.908;2023-04-28T13:22:25;4.28;;;3.88;;
27670;SDS011;15077;49.704;9.908;2023-04-28T13:24:51;5.30;;;4.32;;
27670;SDS011;15077;49.704;9.908;2023-04-28T13:27:16;4.30;;;3.90;;
27670;SDS011;15077;49.704;9.908;2023-04-28T13:29:42;3.95;;;3.50;;
27670;SDS011;15077;49.704;9.908;2023-04-28T13:32:08;4.07;;;3.50;;
27670;SDS011;15077;49.704;9.908;2023-04-28T13:34:34;7.47;;;6.25;;
27670;SDS011;15077;49.704;9.908;2023-04-28T13:37:02;6.65;;;5.05;;
27670;SDS011;15077;49.704;9.908;2023-04-28T13:39:27;7.13;;;6.30;;
27670;SDS011;15077;49.704;9.908;2023-04-28T13:41:53;5.10;;;4.43;;
27670;SDS011;15077;49.704;9.908;2023-04-28T13:44:19;3.45;;;2.78;;
27670;SDS011;15077;49.704;9.908;2023-04-28T13:46:45;4.03;;;3.15;;
27670;SDS011;15077;49.704;9.908;2023-04-28T13:49:11;5.03;;;3.55;;
27670;SDS011;15077;49.704;9.908;2023-04-28T13:51:37;4.53;;;3.17;;
27670;SDS011;15077;49.704;9.908;2023-04-28T13:54:03;4.20;;;3.00;;
27670;SDS011;15077;49.704;9.908;2023-04-28T13:56:32;6.82;;;5.57;;
27670;SDS011;15077;49.704;9.908;2023-04-28T13:59:00;7.82;;;5.80;;
27670;SDS011;15077;49.704;9.908;2023-04-28T14:01:26;7.07;;;4.75;;
27670;SDS011;15077;49.704;9.908;2023-04-28T14:03:52;7.78;;;5.53;;
27670;SDS011;15077;49.704;9.908;2023-04-28T14:06:18;7.05;;;4.82;;
27670;SDS011;15077;49.704;9.908;2023-04-28T14:08:44;6.85;;;5.43;;
27670;SDS011;15077;49.704;9.908;2023-04-28T14:11:10;6.18;;;4.78;;
27670;SDS011;15077;49.704;9.908;2023-04-28T14:13:36;7.35;;;5.68;;
27670;SDS011;15077;49.704;9.908;2023-04-28T14:16:02;12.98;;;9.00;;
27670;SDS011;15077;49.704;9.908;2023-04-28T14:18:30;10.63;;;8.30;;
27670;SDS011;15077;49.704;9.908;2023-04-28T14:20:57;13.45;;;8.75;;
27670;SDS011;15077;49.704;9.908;2023-04-28T14:23:23;9.18;;;6.43;;
27670;SDS011;15077;49.704;9.908;2023-04-28T14:25:51;6.85;;;5.97;;
27670;SDS011;15077;49.704;9.908;2023-04-28T14:28:20;11.95;;;8.77;;
27670;SDS011;15077;49.704;9.908;2023-04-28T14:30:46;7.10;;;4.97;;
27670;SDS011;15077;49.704;9.908;2023-04-28T14:33:11;4.30;;;3.85;;
27670;SDS011;15077;49.704;9.908;2023-04-28T14:35:37;5.13;;;3.88;;
27670;SDS011;15077;49.704;9.908;2023-04-28T14:38:05;4.57;;;3.50;;
27670;SDS011;15077;49.704;9.908;2023-04-28T14:40:31;4.93;;;3.70;;
27670;SDS011;15077;49.704;9.908;2023-04-28T14:42:57;4.85;;;3.38;;
27670;SDS011;15077;49.704;9.908;2023-04-28T14:45:23;7.57;;;6.00;;
27670;SDS011;15077;49.704;9.908;2023-04-28T14:47:48;6.65;;;5.95;;
27670;SDS011;15077;49.704;9.908;2023-04-28T14:50:14;6.38;;;4.85;;
27670;SDS011;15077;49.704;9.908;2023-04-28T14:52:40;5.50;;;4.43;;
27670;SDS011;15077;49.704;9.908;2023-04-28T14:55:06;4.75;;;3.92;;
27670;SDS011;15077;49.704;9.908;2023-04-28T14:57:32;3.53;;;2.80;;
27670;SDS011;15077;49.704;9.908;2023-04-28T15:00:00;3.17;;;2.88;;
27670;SDS011;15077;49.704;9.908;2023-04-28T15:02:27;3.00;;;2.33;;
27670;SDS011;15077;49.704;9.908;2023-04-28T15:04:54;1.90;;;1.60;;
27670;SDS011;15077;49.704;9.908;2023-04-28T15:07:21;2.50;;;1.98;;
27670;SDS011;15077;49.704;9.908;2023-04-28T15:09:47;2.10;;;1.58;;
27670;SDS011;15077;49.704;9.908;2023-04-28T15:12:13;1.75;;;1.58;;
27670;SDS011;15077;49.704;9.908;2023-04-28T15:14:39;2.40;;;1.70;;
27670;SDS011;15077;49.704;9.908;2023-04-28T15:17:05;2.38;;;1.67;;
27670;SDS011;15077;49.704;9.908;2023-04-28T15:19:31;2.58;;;1.98;;